createdAt,value
2019-04-20T00:01:26.323Z,6.40
2019-04-20T00:04:09.890Z,7.13
2019-04-20T00:06:56.471Z,6.50
2019-04-20T00:09:50.211Z,6.33
2019-04-20T00:12:42.375Z,6.43
2019-04-20T00:15:17.909Z,6.50
2019-04-20T00:18:06.674Z,5.80
2019-04-20T00:21:03.936Z,6.47
2019-04-20T00:23:47.996Z,7.07
2019-04-20T00:27:06.502Z,6.57
2019-04-20T00:29:41.141Z,6.90
2019-04-20T00:32:20.043Z,6.77
2019-04-20T00:34:58.006Z,6.93
2019-04-20T00:37:44.553Z,6.50
2019-04-20T00:40:30.918Z,7.47
2019-04-20T00:43:21.061Z,7.00
2019-04-20T00:46:08.242Z,6.90
2019-04-20T00:49:00.848Z,7.40
2019-04-20T00:52:11.170Z,7.47
2019-04-20T00:54:28.429Z,7.17
2019-04-20T00:57:25.343Z,6.90
2019-04-20T01:00:21.801Z,7.40
2019-04-20T01:03:04.184Z,7.40
2019-04-20T01:06:13.416Z,7.43
2019-04-20T01:08:48.469Z,7.50
2019-04-20T01:11:39.949Z,7.80
2019-04-20T01:14:27.255Z,7.93
2019-04-20T01:17:12.170Z,7.90
2019-04-20T01:19:58.051Z,7.20
2019-04-20T01:22:53.871Z,7.40
2019-04-20T01:25:35.972Z,7.30
2019-04-20T01:28:39.223Z,7.73
2019-04-20T01:31:18.748Z,7.57
2019-04-20T01:34:05.418Z,7.83
2019-04-20T01:36:56.003Z,7.73
2019-04-20T01:39:37.062Z,7.73
2019-04-20T01:42:17.750Z,7.20
2019-04-20T01:45:12.640Z,6.87
2019-04-20T01:47:55.053Z,8.03
2019-04-20T01:50:49.970Z,8.23
2019-04-20T01:53:56.829Z,8.10
2019-04-20T01:56:52.259Z,8.63
2019-04-20T01:59:48.195Z,8.13
2019-04-20T02:02:50.141Z,8.13
2019-04-20T02:05:35.921Z,8.30
2019-04-20T02:08:24.385Z,8.50
2019-04-20T02:11:09.937Z,8.53
2019-04-20T02:14:00.437Z,8.97
2019-04-20T02:16:48.014Z,8.27
2019-04-20T02:19:51.018Z,8.50
2019-04-20T02:22:38.328Z,9.60
2019-04-20T02:25:10.023Z,9.27
2019-04-20T02:28:16.675Z,9.00
2019-04-20T02:34:16.106Z,9.97
2019-04-20T02:42:44.655Z,9.17
2019-04-20T02:45:39.907Z,9.43
2019-04-20T02:48:08.115Z,8.97
2019-04-20T02:50:59.256Z,9.20
2019-04-20T02:56:39.386Z,9.47
2019-04-20T03:01:59.268Z,9.13
2019-04-20T03:04:40.268Z,9.87
2019-04-20T03:07:30.408Z,9.90
2019-04-20T03:10:39.372Z,9.60
2019-04-20T03:13:15.888Z,9.47
2019-04-20T03:16:00.354Z,10.13
2019-04-20T03:18:44.628Z,9.20
2019-04-20T03:21:39.101Z,9.97
2019-04-20T03:24:32.329Z,9.77
2019-04-20T03:27:18.862Z,10.03
2019-04-20T03:31:05.612Z,9.53
2019-04-20T03:36:12.528Z,10.10
2019-04-20T03:38:52.512Z,10.00
2019-04-20T03:41:24.469Z,10.83
2019-04-20T03:44:10.365Z,10.17
2019-04-20T03:46:58.042Z,10.03
2019-04-20T03:50:03.354Z,10.20
2019-04-20T03:53:02.750Z,10.90
2019-04-20T03:55:57.693Z,11.73
2019-04-20T03:59:07.969Z,10.70
2019-04-20T04:02:22.520Z,10.30
2019-04-20T04:05:19.238Z,10.53
2019-04-20T04:08:00.972Z,11.07
2019-04-20T04:11:00.036Z,9.87
2019-04-20T04:13:25.005Z,10.10
2019-04-20T04:16:13.826Z,10.10
2019-04-20T04:19:09.301Z,10.60
2019-04-20T04:22:01.590Z,10.17
2019-04-20T04:24:52.474Z,11.87
2019-04-20T04:27:40.644Z,10.17
2019-04-20T04:30:27.884Z,11.50
2019-04-20T04:33:41.507Z,10.20
2019-04-20T04:36:00.638Z,10.50
2019-04-20T04:39:08.734Z,10.83
2019-04-20T04:41:39.877Z,10.33
2019-04-20T04:44:25.573Z,10.43
2019-04-20T04:47:00.221Z,10.97
2019-04-20T04:49:49.936Z,10.20
2019-04-20T04:52:44.628Z,10.30
2019-04-20T04:55:29.513Z,11.87
2019-04-20T04:58:06.939Z,10.53
2019-04-20T05:01:03.781Z,10.57
2019-04-20T05:04:02.982Z,10.10
2019-04-20T05:06:37.520Z,11.13
2019-04-20T05:09:17.660Z,10.30
2019-04-20T05:12:09.907Z,10.17
2019-04-20T05:15:01.940Z,10.70
2019-04-20T05:17:57.601Z,10.63
2019-04-20T05:20:56.488Z,9.90
2019-04-20T05:23:47.901Z,10.50
2019-04-20T05:27:09.444Z,10.83
2019-04-20T05:29:36.565Z,10.23
2019-04-20T05:32:32.563Z,10.70
2019-04-20T05:35:33.627Z,11.23
2019-04-20T05:38:28.360Z,10.90
2019-04-20T05:41:04.538Z,11.47
2019-04-20T05:44:23.749Z,10.43
2019-04-20T05:47:17.514Z,10.33
2019-04-20T05:49:57.071Z,10.50
2019-04-20T05:52:56.297Z,11.00
2019-04-20T05:55:40.087Z,10.60
2019-04-20T05:58:26.393Z,10.63
2019-04-20T06:01:20.163Z,10.70
2019-04-20T06:04:01.613Z,11.57
2019-04-20T06:06:56.505Z,11.40
2019-04-20T06:09:39.717Z,10.70
2019-04-20T06:12:33.125Z,11.13
2019-04-20T06:15:15.417Z,11.00
2019-04-20T06:18:20.193Z,11.27
2019-04-20T06:21:21.287Z,11.37
2019-04-20T06:24:42.069Z,11.60
2019-04-20T06:27:21.454Z,11.07
2019-04-20T06:30:08.275Z,11.60
2019-04-20T06:33:55.172Z,10.80
2019-04-20T06:36:27.664Z,9.90
2019-04-20T06:39:16.101Z,10.57
2019-04-20T06:44:39.793Z,10.70
2019-04-20T06:47:29.409Z,11.23
2019-04-20T06:50:18.423Z,10.73
2019-04-20T06:53:31.851Z,11.27
2019-04-20T06:56:16.870Z,11.10
2019-04-20T06:59:12.335Z,11.43
2019-04-20T07:01:56.563Z,11.37
2019-04-20T07:04:54.451Z,10.90
2019-04-20T07:07:30.888Z,10.37
2019-04-20T07:10:20.631Z,10.83
2019-04-20T07:12:55.367Z,10.93
2019-04-20T07:15:51.950Z,10.97
2019-04-20T07:19:09.164Z,10.43
2019-04-20T07:22:36.079Z,11.40
2019-04-20T07:25:14.369Z,10.73
2019-04-20T07:28:05.881Z,9.60
2019-04-20T07:30:51.997Z,10.30
2019-04-20T07:33:39.393Z,9.37
2019-04-20T07:36:32.233Z,10.47
2019-04-20T07:39:19.402Z,9.57
2019-04-20T07:42:08.170Z,9.20
2019-04-20T07:44:56.658Z,10.60
2019-04-20T07:47:41.503Z,9.63
2019-04-20T07:50:18.870Z,10.00
2019-04-20T07:53:08.951Z,9.83
2019-04-20T07:56:02.384Z,9.57
2019-04-20T07:58:35.791Z,10.30
2019-04-20T08:01:44.890Z,11.30
2019-04-20T08:04:56.387Z,10.10
2019-04-20T08:07:53.586Z,10.53
2019-04-20T08:10:52.332Z,10.33
2019-04-20T08:13:46.700Z,10.67
2019-04-20T08:16:41.014Z,9.60
2019-04-20T08:19:17.382Z,9.40
2019-04-20T08:22:08.008Z,9.73
2019-04-20T08:24:49.918Z,10.40
2019-04-20T08:27:25.765Z,10.53
2019-04-20T08:30:35.945Z,10.37
2019-04-20T08:33:17.838Z,10.60
2019-04-20T08:36:13.544Z,9.97
2019-04-20T08:41:50.384Z,10.50
2019-04-20T08:47:32.258Z,10.33
2019-04-20T08:50:24.930Z,10.90
2019-04-20T08:53:20.487Z,10.37
2019-04-20T08:55:53.802Z,10.57
2019-04-20T08:58:29.632Z,10.97
2019-04-20T09:01:24.271Z,11.83
2019-04-20T09:04:09.841Z,12.27
2019-04-20T09:07:04.111Z,11.30
2019-04-20T09:10:04.902Z,11.27
2019-04-20T09:12:40.550Z,12.23
2019-04-20T09:15:16.743Z,11.73
2019-04-20T09:18:20.654Z,11.63
2019-04-20T09:21:03.342Z,10.20
2019-04-20T09:24:11.814Z,10.67
2019-04-20T09:26:54.582Z,11.20
2019-04-20T09:29:33.188Z,10.77
2019-04-20T09:32:31.384Z,11.00
2019-04-20T09:35:25.382Z,10.50
2019-04-20T09:38:09.814Z,10.00
2019-04-20T09:41:01.139Z,11.40
2019-04-20T09:43:43.226Z,11.10
2019-04-20T09:46:30.942Z,10.07
2019-04-20T09:49:28.580Z,10.97
2019-04-20T09:52:16.878Z,10.13
2019-04-20T09:55:09.528Z,10.87
2019-04-20T09:57:58.629Z,10.97
2019-04-20T10:00:53.923Z,10.63
2019-04-20T10:03:28.959Z,10.43
2019-04-20T10:06:18.843Z,10.93
2019-04-20T10:09:05.009Z,10.40
2019-04-20T10:11:50.565Z,9.00
2019-04-20T10:14:36.474Z,9.90
2019-04-20T10:17:23.549Z,9.27
2019-04-20T10:20:19.385Z,9.00
2019-04-20T10:22:58.381Z,10.47
2019-04-20T10:25:44.714Z,8.03
2019-04-20T10:28:31.796Z,9.13
2019-04-20T10:31:17.272Z,8.80
2019-04-20T10:34:03.924Z,9.40
2019-04-20T10:37:13.786Z,9.30
2019-04-20T10:40:07.233Z,8.70
2019-04-20T10:42:55.108Z,9.30
2019-04-20T10:45:41.743Z,9.53
2019-04-20T10:48:33.910Z,8.63
2019-04-20T10:51:15.609Z,9.33
2019-04-20T10:54:02.491Z,9.13
2019-04-20T10:56:49.558Z,8.77
2019-04-20T10:59:35.245Z,8.50
2019-04-20T11:02:21.669Z,8.83
2019-04-20T11:05:08.645Z,9.03
2019-04-20T11:07:56.781Z,8.40
2019-04-20T11:10:55.991Z,8.47
2019-04-20T11:13:31.331Z,8.93
2019-04-20T11:16:18.111Z,8.37
2019-04-20T11:19:05.248Z,8.13
2019-04-20T11:21:52.377Z,8.97
2019-04-20T11:24:38.710Z,9.73
2019-04-20T11:27:24.243Z,9.07
2019-04-20T11:30:11.937Z,8.07
2019-04-20T11:32:58.183Z,8.00
2019-04-20T11:35:45.266Z,8.17
2019-04-20T11:38:33.143Z,8.03
2019-04-20T11:41:25.557Z,8.40
2019-04-20T11:44:07.626Z,8.37
2019-04-20T11:46:56.705Z,8.00
2019-04-20T11:49:43.716Z,7.87
2019-04-20T11:52:33.259Z,7.23
2019-04-20T11:55:18.151Z,7.80
2019-04-20T11:58:05.793Z,8.10
2019-04-20T12:01:00.727Z,7.80
2019-04-20T12:03:50.713Z,7.47
2019-04-20T12:06:28.792Z,8.37
2019-04-20T12:09:14.907Z,7.40
2019-04-20T12:12:24.686Z,7.87
2019-04-20T12:15:00.844Z,7.87
2019-04-20T12:17:47.361Z,7.53
2019-04-20T12:20:34.558Z,8.83
2019-04-20T12:23:22.345Z,8.10
2019-04-20T12:26:08.935Z,7.57
2019-04-20T12:28:55.868Z,8.33
2019-04-20T12:31:46.319Z,8.03
2019-04-20T12:34:30.696Z,8.07
2019-04-20T12:37:16.688Z,7.27
2019-04-20T12:40:05.029Z,8.03
2019-04-20T12:42:50.924Z,7.10
2019-04-20T12:45:37.797Z,7.30
2019-04-20T12:48:24.005Z,9.07
2019-04-20T13:00:41.669Z,7.50
2019-04-20T13:03:31.491Z,7.97
2019-04-20T13:06:17.856Z,8.03
2019-04-20T13:09:10.589Z,6.80
2019-04-20T13:12:09.970Z,7.10
2019-04-20T13:15:24.566Z,6.97
2019-04-20T13:18:11.556Z,6.70
2019-04-20T13:20:58.800Z,6.23
2019-04-20T13:23:45.424Z,7.37
2019-04-20T13:26:33.087Z,7.13
2019-04-20T13:29:19.278Z,8.00
2019-04-20T13:32:05.488Z,7.43
2019-04-20T13:34:52.090Z,7.20
2019-04-20T13:37:39.977Z,7.90
2019-04-20T13:40:26.104Z,8.00
2019-04-20T13:43:14.080Z,7.60
2019-04-20T13:46:00.783Z,7.50
2019-04-20T13:48:46.990Z,7.77
2019-04-20T13:51:34.874Z,7.93
2019-04-20T13:54:24.491Z,7.57
2019-04-20T13:57:10.012Z,8.67
2019-04-20T13:59:58.021Z,7.60
2019-04-20T14:02:50.997Z,7.10
2019-04-20T14:05:38.511Z,8.20
2019-04-20T14:08:27.373Z,6.97
2019-04-20T14:11:13.478Z,8.67
2019-04-20T14:14:03.152Z,8.70
2019-04-20T14:16:47.828Z,8.00
2019-04-20T14:19:34.830Z,8.10
2019-04-20T14:22:20.888Z,7.70
2019-04-20T14:25:07.056Z,8.20
2019-04-20T14:27:53.052Z,7.53
2019-04-20T14:30:38.625Z,8.13
2019-04-20T14:33:24.554Z,8.30
2019-04-20T14:36:13.325Z,8.37
2019-04-20T14:39:00.400Z,7.73
2019-04-20T14:41:48.652Z,7.30
2019-04-20T14:44:34.260Z,8.63
2019-04-20T14:47:21.701Z,7.77
2019-04-20T14:50:09.761Z,8.20
2019-04-20T14:52:55.991Z,8.37
2019-04-20T14:55:43.717Z,8.13
2019-04-20T14:58:49.324Z,7.63
2019-04-20T15:01:52.526Z,7.90
2019-04-20T15:04:39.076Z,8.10
2019-04-20T15:07:26.741Z,7.73
2019-04-20T15:10:13.089Z,7.80
2019-04-20T15:13:02.422Z,7.83
2019-04-20T15:15:46.625Z,7.83
2019-04-20T15:18:51.795Z,8.17
2019-04-20T15:21:49.817Z,7.53
2019-04-20T15:24:35.950Z,8.17
2019-04-20T15:27:22.709Z,8.30
2019-04-20T15:30:08.861Z,8.37
2019-04-20T15:32:54.734Z,8.00
2019-04-20T15:35:44.158Z,8.17
2019-04-20T15:38:31.239Z,8.33
2019-04-20T15:41:18.509Z,8.27
2019-04-20T15:44:05.153Z,8.03
2019-04-20T15:46:51.127Z,7.80
2019-04-20T15:49:38.218Z,7.83
2019-04-20T15:52:29.440Z,7.53
2019-04-20T15:55:23.597Z,9.57
2019-04-20T15:57:59.893Z,8.40
2019-04-20T16:00:46.642Z,9.63
2019-04-20T16:03:43.472Z,8.23
2019-04-20T16:06:29.634Z,7.77
2019-04-20T16:09:15.825Z,7.63
2019-04-20T16:12:02.804Z,7.10
2019-04-20T16:14:49.476Z,8.37
2019-04-20T16:17:40.855Z,8.43
2019-04-20T16:20:25.030Z,7.47
2019-04-20T16:23:12.352Z,7.50
2019-04-20T16:26:07.900Z,8.30
2019-04-20T16:28:53.791Z,6.90
2019-04-20T16:31:40.530Z,7.73
2019-04-20T16:34:27.605Z,6.80
2019-04-20T16:37:14.796Z,7.13
2019-04-20T16:40:02.786Z,7.70
2019-04-20T16:42:48.357Z,7.37
2019-04-20T16:45:35.096Z,6.77
2019-04-20T16:48:22.090Z,7.93
2019-04-20T16:51:09.018Z,7.33
2019-04-20T16:53:56.149Z,6.87
2019-04-20T16:56:42.826Z,6.90
2019-04-20T16:59:33.634Z,6.60
2019-04-20T17:02:19.160Z,6.80
2019-04-20T17:05:07.345Z,6.50
2019-04-20T17:07:55.261Z,6.33
2019-04-20T17:10:41.493Z,6.83
2019-04-20T17:13:37.978Z,6.33
2019-04-20T17:16:19.626Z,5.63
2019-04-20T17:19:05.996Z,6.00
2019-04-20T17:21:52.851Z,5.93
2019-04-20T17:24:40.066Z,5.67
2019-04-20T17:27:46.877Z,6.27
2019-04-20T17:30:52.894Z,5.93
2019-04-20T17:33:53.394Z,6.00
2019-04-20T17:36:36.299Z,5.87
2019-04-20T17:39:34.266Z,6.00
2019-04-20T17:42:23.778Z,6.20
2019-04-20T17:45:04.808Z,6.53
2019-04-20T17:48:03.455Z,6.30
2019-04-20T17:50:55.770Z,5.57
2019-04-20T17:53:57.668Z,5.67
2019-04-20T17:56:42.386Z,5.37
2019-04-20T17:59:30.277Z,6.03
2019-04-20T18:02:59.311Z,6.83
2019-04-20T18:05:58.371Z,5.10
2019-04-20T18:08:44.035Z,5.60
2019-04-20T18:11:17.852Z,5.80
2019-04-20T18:14:10.368Z,5.27
2019-04-20T18:17:15.444Z,5.30
2019-04-20T18:19:52.225Z,4.83
2019-04-20T18:22:43.225Z,5.00
2019-04-20T18:25:56.195Z,5.20
2019-04-20T18:28:32.307Z,5.10
2019-04-20T18:31:23.768Z,4.93
2019-04-20T18:34:17.945Z,4.73
2019-04-20T18:37:07.692Z,5.33
2019-04-20T18:39:58.917Z,5.40
2019-04-20T18:42:43.223Z,5.20
2019-04-20T18:45:42.345Z,6.00
2019-04-20T18:48:33.986Z,6.03
2019-04-20T18:51:01.795Z,6.20
2019-04-20T18:53:49.997Z,5.87
2019-04-20T18:56:43.179Z,6.03
2019-04-20T18:59:35.435Z,6.30
2019-04-20T19:02:18.539Z,6.10
2019-04-20T19:05:01.555Z,5.60
2019-04-20T19:07:57.773Z,5.80
2019-04-20T19:10:38.585Z,5.87
2019-04-20T19:13:44.554Z,6.10
2019-04-20T19:16:49.326Z,6.20
2019-04-20T19:19:36.963Z,6.00
2019-04-20T19:22:14.187Z,6.67
2019-04-20T19:25:00.089Z,6.50
2019-04-20T19:27:50.832Z,6.47
2019-04-20T19:30:44.218Z,6.60
2019-04-20T19:33:37.035Z,7.47
2019-04-20T19:36:19.772Z,8.07
2019-04-20T19:39:19.401Z,7.77
2019-04-20T19:42:01.736Z,8.40
2019-04-20T19:44:53.784Z,7.17
2019-04-20T19:47:47.857Z,7.87
2019-04-20T19:53:26.547Z,8.23
2019-04-20T19:56:03.487Z,8.40
2019-04-20T19:58:55.240Z,8.27
2019-04-20T20:01:27.487Z,8.70
2019-04-20T20:04:15.549Z,9.57
2019-04-20T20:07:04.040Z,10.20
2019-04-20T20:09:54.787Z,9.77
2019-04-20T20:12:41.246Z,9.70
2019-04-20T20:15:32.424Z,8.87
2019-04-20T20:18:30.635Z,9.43
2019-04-20T20:21:16.115Z,10.37
2019-04-20T20:23:47.898Z,9.87
2019-04-20T20:26:38.593Z,9.73
2019-04-20T20:29:32.699Z,10.20
2019-04-20T20:32:23.396Z,10.03
2019-04-20T20:35:10.031Z,9.40
2019-04-20T20:37:57.080Z,10.20
2019-04-20T20:40:49.818Z,8.93
2019-04-20T20:43:42.364Z,8.83
2019-04-20T20:46:24.973Z,9.60
2019-04-20T20:49:18.373Z,9.20
2019-04-20T20:52:08.321Z,9.30
2019-04-20T20:54:49.443Z,9.53
2019-04-20T20:57:44.971Z,9.63
2019-04-20T21:00:34.454Z,9.83
2019-04-20T21:03:22.433Z,9.67
2019-04-20T21:05:59.938Z,9.60
2019-04-20T21:08:51.208Z,10.50
2019-04-20T21:11:36.228Z,9.33
2019-04-20T21:14:27.954Z,10.10
2019-04-20T21:17:15.972Z,10.20
2019-04-20T21:20:12.650Z,9.43
2019-04-20T21:23:03.602Z,10.90
2019-04-20T21:25:43.475Z,10.23
2019-04-20T21:28:24.957Z,9.80
2019-04-20T21:31:14.576Z,9.77
2019-04-20T21:34:02.813Z,10.00
2019-04-20T21:36:47.257Z,10.27
2019-04-20T21:39:41.259Z,10.43
2019-04-20T21:42:24.588Z,10.63
2019-04-20T21:45:16.399Z,9.33
2019-04-20T21:48:01.358Z,10.27
2019-04-20T21:51:02.502Z,9.40
2019-04-20T21:53:35.385Z,9.87
2019-04-20T21:56:21.957Z,10.17
2019-04-20T21:59:16.440Z,9.93
2019-04-20T22:02:04.441Z,9.77
2019-04-20T22:04:45.261Z,10.80
2019-04-20T22:07:34.292Z,10.30
2019-04-20T22:10:26.003Z,10.27
2019-04-20T22:13:09.946Z,10.13
2019-04-20T22:16:02.010Z,10.20
2019-04-20T22:18:52.961Z,10.67
2019-04-20T22:21:48.276Z,10.33
2019-04-20T22:24:35.024Z,10.83
2019-04-20T22:27:15.939Z,11.17
2019-04-20T22:29:54.405Z,11.10
2019-04-20T22:32:44.395Z,11.03
2019-04-20T22:35:28.288Z,10.97
2019-04-20T22:38:22.564Z,11.20
2019-04-20T22:41:13.913Z,11.50
2019-04-20T22:43:56.653Z,12.70
2019-04-20T22:46:44.474Z,11.50
2019-04-20T22:49:47.242Z,11.47
2019-04-20T22:52:34.875Z,11.77
2019-04-20T22:55:29.668Z,11.13
2019-04-20T22:58:01.081Z,11.33
2019-04-20T23:00:50.130Z,10.23
2019-04-20T23:03:28.490Z,11.50
2019-04-20T23:06:16.607Z,11.63
2019-04-20T23:09:10.232Z,10.67
2019-04-20T23:12:00.982Z,10.70
2019-04-20T23:14:40.754Z,11.20
2019-04-20T23:17:33.550Z,10.20
2019-04-20T23:20:22.991Z,10.80
2019-04-20T23:23:02.887Z,10.87
2019-04-20T23:25:49.612Z,10.33
2019-04-20T23:28:35.478Z,10.73
2019-04-20T23:31:23.868Z,11.00
2019-04-20T23:34:16.581Z,11.03
2019-04-20T23:36:58.835Z,11.03
2019-04-20T23:39:47.275Z,11.40
2019-04-20T23:42:42.422Z,10.63
2019-04-20T23:45:54.825Z,10.90
2019-04-20T23:49:17.010Z,11.43
2019-04-20T23:52:21.510Z,10.67
2019-04-20T23:54:53.897Z,10.63
2019-04-20T23:57:31.622Z,11.27
